createdAt,value
2022-12-15T00:00:30.142Z,89591.88
2022-12-15T00:02:57.184Z,89590.41
2022-12-15T00:05:24.279Z,89597.75
2022-12-15T00:07:51.194Z,89599.22
2022-12-15T00:10:19.066Z,89592.63
2022-12-15T00:12:46.019Z,89604.91
2022-12-15T00:15:13.120Z,89603.81
2022-12-15T00:17:40.109Z,89605.78
2022-12-15T00:20:07.423Z,89593.91
2022-12-15T00:22:34.447Z,89602.41
2022-12-15T00:25:01.459Z,89605.25
2022-12-15T00:27:28.448Z,89607.44
2022-12-15T00:29:55.440Z,89604.50
2022-12-15T00:32:23.434Z,89600.94
2022-12-15T00:34:50.282Z,89595.56
2022-12-15T00:37:17.209Z,89604.06
2022-12-15T00:39:43.992Z,89606.56
2022-12-15T00:42:11.487Z,89606.28
2022-12-15T00:44:38.322Z,89602.88
2022-12-15T00:47:06.334Z,89599.09
2022-12-15T00:49:33.329Z,89606.72
2022-12-15T00:52:00.414Z,89609.97
2022-12-15T00:54:27.482Z,89609.53
2022-12-15T00:56:54.329Z,89607.06
2022-12-15T00:59:21.421Z,89612.28
2022-12-15T01:01:49.720Z,89604.84
2022-12-15T01:04:16.977Z,89614.47
2022-12-15T01:06:44.344Z,89602.66
2022-12-15T01:09:13.363Z,89603.78
2022-12-15T01:11:40.805Z,89607.41
2022-12-15T01:14:07.671Z,89603.88
2022-12-15T01:16:34.607Z,89609.44
2022-12-15T01:19:01.421Z,89605.44
2022-12-15T01:21:28.449Z,89612.03
2022-12-15T01:23:55.486Z,89608.09
2022-12-15T01:26:22.515Z,89605.00
2022-12-15T01:28:49.485Z,89598.81
2022-12-15T01:31:16.820Z,89606.31
2022-12-15T01:33:44.002Z,89602.06
2022-12-15T01:36:11.380Z,89607.28
2022-12-15T01:38:38.512Z,89608.50
2022-12-15T01:41:08.472Z,89605.97
2022-12-15T01:43:39.072Z,89609.66
2022-12-15T01:46:10.486Z,89605.63
2022-12-15T01:49:14.446Z,89603.91
2022-12-15T01:51:47.667Z,89612.28
2022-12-15T01:54:20.082Z,89609.53
2022-12-15T01:56:55.413Z,89605.72
2022-12-15T01:59:37.877Z,89601.81
2022-12-15T02:02:05.989Z,89596.34
2022-12-15T02:04:34.525Z,89598.88
2022-12-15T02:07:01.598Z,89599.53
2022-12-15T02:09:29.170Z,89601.53
2022-12-15T02:12:24.658Z,89599.47
2022-12-15T02:15:00.754Z,89602.16
2022-12-15T02:17:36.337Z,89602.41
2022-12-15T02:20:23.713Z,89598.81
2022-12-15T02:23:02.622Z,89595.44
2022-12-15T02:26:06.997Z,89593.13
2022-12-15T02:28:45.467Z,89589.50
2022-12-15T02:31:17.814Z,89593.47
2022-12-15T02:33:54.826Z,89587.75
2022-12-15T02:36:33.050Z,89582.34
2022-12-15T02:38:59.833Z,89571.66
2022-12-15T02:41:43.441Z,89580.25
2022-12-15T02:44:13.138Z,89573.63
2022-12-15T02:47:15.111Z,89580.97
2022-12-15T02:50:15.640Z,89579.75
2022-12-15T02:52:54.388Z,89574.06
2022-12-15T02:55:24.223Z,89577.63
2022-12-15T02:58:07.698Z,89572.31
2022-12-15T03:00:41.026Z,89572.28
2022-12-15T03:03:08.602Z,89582.69
2022-12-15T03:05:35.887Z,89579.22
2022-12-15T03:08:03.092Z,89576.03
2022-12-15T03:10:29.945Z,89571.63
2022-12-15T03:12:56.867Z,89580.88
2022-12-15T03:15:23.783Z,89587.97
2022-12-15T03:17:50.643Z,89587.72
2022-12-15T03:20:17.553Z,89590.78
2022-12-15T03:22:44.538Z,89580.50
2022-12-15T03:25:11.433Z,89583.00
2022-12-15T03:27:38.267Z,89581.13
2022-12-15T03:30:06.126Z,89591.53
2022-12-15T03:32:33.254Z,89598.63
2022-12-15T03:35:00.667Z,89590.34
2022-12-15T03:37:28.063Z,89590.88
2022-12-15T03:39:55.211Z,89583.00
2022-12-15T03:42:22.108Z,89595.34
2022-12-15T03:44:49.200Z,89590.78
2022-12-15T03:47:16.393Z,89594.28
2022-12-15T03:49:43.336Z,89602.41
2022-12-15T03:52:10.161Z,89607.34
2022-12-15T03:54:37.317Z,89616.09
2022-12-15T03:57:04.375Z,89607.59
2022-12-15T03:59:31.279Z,89612.34
2022-12-15T04:01:58.539Z,89609.06
2022-12-15T04:04:25.549Z,89604.66
2022-12-15T04:06:52.603Z,89622.63
2022-12-15T04:09:19.741Z,89619.25
2022-12-15T04:11:46.593Z,89615.84
2022-12-15T04:14:13.530Z,89614.00
2022-12-15T04:16:40.493Z,89608.28
2022-12-15T04:19:07.320Z,89612.09
2022-12-15T04:21:34.273Z,89611.09
2022-12-15T04:24:01.092Z,89617.16
2022-12-15T04:26:28.032Z,89623.59
2022-12-15T04:28:54.897Z,89621.91
2022-12-15T04:31:28.181Z,89613.22
2022-12-15T04:33:58.756Z,89607.53
2022-12-15T04:36:26.117Z,89607.19
2022-12-15T04:38:53.085Z,89615.00
2022-12-15T04:41:21.787Z,89613.97
2022-12-15T04:43:48.948Z,89613.03
2022-12-15T04:46:15.912Z,89609.66
2022-12-15T04:48:43.077Z,89609.59
2022-12-15T04:51:10.007Z,89631.28
2022-12-15T04:53:36.965Z,89632.94
2022-12-15T04:56:05.104Z,89634.22
2022-12-15T04:58:32.175Z,89638.13
2022-12-15T05:00:59.223Z,89643.53
2022-12-15T05:03:26.176Z,89633.78
2022-12-15T05:05:53.543Z,89631.88
2022-12-15T05:08:20.672Z,89640.06
2022-12-15T05:10:47.710Z,89649.31
2022-12-15T05:13:14.758Z,89645.38
2022-12-15T05:15:41.720Z,89644.88
2022-12-15T05:18:08.907Z,89652.56
2022-12-15T05:20:36.063Z,89648.47
2022-12-15T05:23:02.961Z,89648.25
2022-12-15T05:25:30.083Z,89648.53
2022-12-15T05:27:56.936Z,89644.34
2022-12-15T05:30:24.156Z,89653.63
2022-12-15T05:32:50.989Z,89655.00
2022-12-15T05:35:17.964Z,89657.69
2022-12-15T05:37:44.826Z,89659.50
2022-12-15T05:40:12.186Z,89652.59
2022-12-15T05:42:39.288Z,89654.28
2022-12-15T05:45:06.710Z,89668.41
2022-12-15T05:47:33.652Z,89667.09
2022-12-15T05:50:00.932Z,89667.41
2022-12-15T05:52:28.017Z,89667.03
2022-12-15T05:54:54.952Z,89670.53
2022-12-15T05:57:21.903Z,89668.06
2022-12-15T05:59:48.774Z,89669.50
2022-12-15T06:02:16.027Z,89664.09
2022-12-15T06:04:43.337Z,89656.75
2022-12-15T06:07:10.333Z,89650.81
2022-12-15T06:09:37.561Z,89656.09
2022-12-15T06:12:05.095Z,89658.53
2022-12-15T06:14:32.296Z,89656.44
2022-12-15T06:16:59.215Z,89669.84
2022-12-15T06:19:26.349Z,89670.94
2022-12-15T06:21:53.390Z,89671.88
2022-12-15T06:24:28.034Z,89671.66
2022-12-15T06:26:54.939Z,89677.38
2022-12-15T06:29:21.899Z,89664.38
2022-12-15T06:31:48.753Z,89672.00
2022-12-15T06:34:17.439Z,89660.66
2022-12-15T06:36:44.632Z,89676.78
2022-12-15T06:39:13.944Z,89679.56
2022-12-15T06:41:41.572Z,89678.28
2022-12-15T06:44:08.382Z,89688.66
2022-12-15T06:46:35.560Z,89679.84
2022-12-15T06:49:02.916Z,89681.19
2022-12-15T06:51:29.841Z,89691.28
2022-12-15T06:53:57.112Z,89678.34
2022-12-15T06:56:34.390Z,89676.47
2022-12-15T06:59:02.869Z,89679.72
2022-12-15T07:01:31.074Z,89674.66
2022-12-15T07:03:59.257Z,89672.47
2022-12-15T07:06:26.372Z,89679.28
2022-12-15T07:08:54.373Z,89685.53
2022-12-15T07:11:22.397Z,89681.16
2022-12-15T07:13:50.973Z,89689.72
2022-12-15T07:16:18.204Z,89691.19
2022-12-15T07:18:45.226Z,89688.69
2022-12-15T07:21:12.127Z,89685.81
2022-12-15T07:23:54.131Z,89681.63
2022-12-15T07:26:22.448Z,89674.06
2022-12-15T07:28:49.479Z,89678.91
2022-12-15T07:31:16.950Z,89677.06
2022-12-15T07:33:43.864Z,89685.31
2022-12-15T07:36:10.763Z,89683.31
2022-12-15T07:38:37.839Z,89691.88
2022-12-15T07:41:06.583Z,89682.38
2022-12-15T07:43:34.131Z,89690.34
2022-12-15T07:46:01.756Z,89690.28
2022-12-15T07:48:28.957Z,89693.53
2022-12-15T07:50:58.657Z,89693.13
2022-12-15T07:53:31.661Z,89690.31
2022-12-15T07:56:07.597Z,89686.38
2022-12-15T07:58:35.759Z,89693.13
2022-12-15T08:01:05.509Z,89691.50
2022-12-15T08:03:33.285Z,89692.41
2022-12-15T08:06:11.676Z,89686.09
2022-12-15T08:08:40.395Z,89680.63
2022-12-15T08:11:09.649Z,89679.16
2022-12-15T08:16:25.063Z,89666.19
2022-12-15T08:18:52.420Z,89667.94
2022-12-15T08:21:19.446Z,89669.03
2022-12-15T08:23:46.490Z,89669.25
2022-12-15T08:26:16.114Z,89661.53
2022-12-15T08:28:43.946Z,89664.50
2022-12-15T08:31:13.963Z,89668.88
2022-12-15T08:33:41.056Z,89667.41
2022-12-15T08:36:14.087Z,89663.25
2022-12-15T08:38:42.193Z,89669.94
2022-12-15T08:41:14.360Z,89666.97
2022-12-15T08:43:48.182Z,89660.88
2022-12-15T08:46:21.612Z,89660.03
2022-12-15T08:48:49.550Z,89657.41
2022-12-15T08:51:17.501Z,89654.94
2022-12-15T08:53:44.487Z,89649.19
2022-12-15T08:56:15.287Z,89646.53
2022-12-15T08:58:42.509Z,89650.53
2022-12-15T09:01:19.019Z,89647.50
2022-12-15T09:03:50.376Z,89643.94
2022-12-15T09:06:23.216Z,89637.31
2022-12-15T09:08:50.721Z,89652.47
2022-12-15T09:11:18.394Z,89638.66
2022-12-15T09:13:45.272Z,89637.53
2022-12-15T09:16:14.665Z,89632.63
2022-12-15T09:18:50.936Z,89631.63
2022-12-15T09:21:19.177Z,89636.34
2022-12-15T09:23:55.199Z,89637.16
2022-12-15T09:26:23.600Z,89644.88
2022-12-15T09:28:51.371Z,89644.41
2022-12-15T09:31:20.726Z,89638.56
2022-12-15T09:33:48.434Z,89639.03
2022-12-15T09:36:15.822Z,89643.72
2022-12-15T09:38:44.180Z,89646.72
2022-12-15T09:41:14.319Z,89646.72
2022-12-15T09:44:01.498Z,89666.66
2022-12-15T09:47:06.762Z,89655.13
2022-12-15T09:49:44.979Z,89664.28
2022-12-15T09:52:14.859Z,89659.88
2022-12-15T09:54:43.711Z,89654.19
2022-12-15T09:57:35.429Z,89667.63
2022-12-15T10:00:14.084Z,89656.22
2022-12-15T10:03:15.856Z,89650.41
2022-12-15T10:06:17.349Z,89651.25
2022-12-15T10:08:50.517Z,89643.44
2022-12-15T10:11:40.870Z,89632.56
2022-12-15T10:14:21.979Z,89633.56
2022-12-15T10:17:13.658Z,89627.16
2022-12-15T10:19:53.963Z,89623.22
2022-12-15T10:22:31.704Z,89611.31
2022-12-15T10:25:10.180Z,89600.47
2022-12-15T10:28:08.038Z,89586.66
2022-12-15T10:30:37.019Z,89592.19
2022-12-15T10:33:22.944Z,89587.59
2022-12-15T10:35:53.677Z,89587.44
2022-12-15T10:38:35.545Z,89582.03
2022-12-15T10:41:06.701Z,89586.31
2022-12-15T10:43:48.179Z,89589.16
2022-12-15T10:46:20.917Z,89587.03
2022-12-15T10:48:59.104Z,89584.84
2022-12-15T10:51:35.050Z,89569.31
2022-12-15T10:54:01.874Z,89574.88
2022-12-15T10:56:33.592Z,89574.97
2022-12-15T10:59:30.862Z,89574.41
2022-12-15T11:02:25.370Z,89567.84
2022-12-15T11:05:01.759Z,89557.72
2022-12-15T11:07:37.527Z,89576.25
2022-12-15T11:10:31.449Z,89583.38
2022-12-15T11:13:14.303Z,89595.72
2022-12-15T11:15:44.244Z,89589.16
2022-12-15T11:19:00.535Z,89588.16
2022-12-15T11:21:36.942Z,89560.88
2022-12-15T11:24:32.293Z,89574.09
2022-12-15T11:27:06.412Z,89574.72
2022-12-15T11:29:46.807Z,89570.25
2022-12-15T11:32:22.086Z,89553.03
2022-12-15T11:34:49.297Z,89555.03
2022-12-15T11:37:38.541Z,89568.06
2022-12-15T11:40:20.656Z,89567.28
2022-12-15T11:42:53.704Z,89570.56
2022-12-15T11:45:28.375Z,89573.19
2022-12-15T11:48:14.021Z,89561.69
2022-12-15T11:51:14.637Z,89580.56
2022-12-15T11:54:02.910Z,89581.84
2022-12-15T11:56:53.085Z,89584.19
2022-12-15T11:59:32.754Z,89585.19
2022-12-15T12:02:14.864Z,89566.34
2022-12-15T12:04:47.726Z,89568.19
2022-12-15T12:07:42.184Z,89574.00
2022-12-15T12:10:39.119Z,89574.00
2022-12-15T12:13:40.913Z,89582.03
2022-12-15T12:16:36.436Z,89585.09
2022-12-15T12:19:22.555Z,89575.38
2022-12-15T12:21:51.785Z,89572.56
2022-12-15T12:24:44.576Z,89576.31
2022-12-15T12:27:36.480Z,89574.59
2022-12-15T12:30:13.606Z,89575.69
2022-12-15T12:32:46.262Z,89578.97
2022-12-15T12:35:31.113Z,89584.97
2022-12-15T12:38:09.893Z,89574.38
2022-12-15T12:40:42.715Z,89587.50
2022-12-15T12:43:28.808Z,89590.97
2022-12-15T12:46:01.181Z,89595.75
2022-12-15T12:48:38.168Z,89600.88
2022-12-15T12:51:22.670Z,89610.66
2022-12-15T12:53:50.435Z,89598.81
2022-12-15T12:56:35.258Z,89592.97
2022-12-15T12:59:04.468Z,89599.72
2022-12-15T13:01:34.472Z,89604.78
2022-12-15T13:04:13.480Z,89605.41
2022-12-15T13:06:40.542Z,89607.50
2022-12-15T13:09:19.702Z,89619.34
2022-12-15T13:11:49.659Z,89627.03
2022-12-15T13:14:25.794Z,89624.28
2022-12-15T13:20:01.249Z,89631.34
2022-12-15T13:22:33.380Z,89634.28
2022-12-15T13:25:00.928Z,89635.25
2022-12-15T13:27:38.512Z,89628.09
2022-12-15T13:30:08.192Z,89623.63
2022-12-15T13:32:36.380Z,89621.03
2022-12-15T13:35:29.488Z,89621.16
2022-12-15T13:37:59.697Z,89625.19
2022-12-15T13:40:32.400Z,89630.22
2022-12-15T13:43:05.011Z,89629.31
2022-12-15T13:45:38.038Z,89637.56
2022-12-15T13:48:19.991Z,89652.84
2022-12-15T13:51:10.522Z,89647.63
2022-12-15T13:53:43.535Z,89649.91
2022-12-15T13:56:38.242Z,89653.47
2022-12-15T13:59:33.322Z,89659.59
2022-12-15T14:02:00.779Z,89661.31
2022-12-15T14:04:28.269Z,89662.09
2022-12-15T14:06:56.934Z,89657.81
2022-12-15T14:09:34.202Z,89667.44
2022-12-15T14:12:08.380Z,89665.97
2022-12-15T14:14:42.765Z,89664.69
2022-12-15T14:17:14.500Z,89668.34
2022-12-15T14:19:46.526Z,89674.13
2022-12-15T14:22:28.608Z,89669.63
2022-12-15T14:25:14.718Z,89667.41
2022-12-15T14:27:41.544Z,89676.03
2022-12-15T14:30:27.278Z,89681.16
2022-12-15T14:33:16.394Z,89688.50
2022-12-15T14:35:51.714Z,89683.91
2022-12-15T14:38:28.167Z,89682.53
2022-12-15T14:40:57.465Z,89678.59
2022-12-15T14:43:30.621Z,89686.06
2022-12-15T14:46:09.276Z,89676.06
2022-12-15T14:48:41.549Z,89676.94
2022-12-15T14:51:12.847Z,89675.72
2022-12-15T14:53:42.602Z,89676.28
2022-12-15T14:56:29.439Z,89678.38
2022-12-15T14:59:04.584Z,89687.03
2022-12-15T15:01:40.274Z,89692.16
2022-12-15T15:04:22.762Z,89694.56
2022-12-15T15:06:55.336Z,89699.84
2022-12-15T15:09:27.131Z,89702.75
2022-12-15T15:11:59.711Z,89708.91
2022-12-15T15:14:30.892Z,89703.84
2022-12-15T15:17:02.773Z,89706.97
2022-12-15T15:19:31.449Z,89706.44
2022-12-15T15:22:01.286Z,89706.06
2022-12-15T15:24:35.858Z,89716.06
2022-12-15T15:27:25.760Z,89721.81
2022-12-15T15:29:53.430Z,89719.69
2022-12-15T15:32:23.055Z,89727.34
2022-12-15T15:34:50.135Z,89712.91
2022-12-15T15:37:25.581Z,89713.28
2022-12-15T15:39:54.758Z,89726.03
2022-12-15T15:42:21.978Z,89732.75
2022-12-15T15:44:49.114Z,89729.34
2022-12-15T15:47:24.844Z,89737.69
2022-12-15T15:49:53.732Z,89732.66
2022-12-15T15:52:20.878Z,89728.53
2022-12-15T15:54:47.969Z,89742.72
2022-12-15T15:57:16.974Z,89741.97
2022-12-15T15:59:44.952Z,89742.47
2022-12-15T16:02:13.954Z,89747.50
2022-12-15T16:04:42.113Z,89751.81
2022-12-15T16:07:29.389Z,89754.56
2022-12-15T16:09:57.023Z,89741.00
2022-12-15T16:12:31.211Z,89740.88
2022-12-15T16:14:58.508Z,89747.97
2022-12-15T16:17:25.682Z,89757.69
2022-12-15T16:19:53.106Z,89759.06
2022-12-15T16:22:22.427Z,89766.09
2022-12-15T16:24:49.516Z,89770.78
2022-12-15T16:27:16.841Z,89764.56
2022-12-15T16:29:44.068Z,89771.97
2022-12-15T16:32:11.538Z,89773.09
2022-12-15T16:34:38.738Z,89779.50
2022-12-15T16:37:09.089Z,89773.53
2022-12-15T16:39:36.186Z,89776.56
2022-12-15T16:42:03.696Z,89766.84
2022-12-15T16:44:31.198Z,89771.25
2022-12-15T16:46:58.736Z,89777.28
2022-12-15T16:49:26.381Z,89770.69
2022-12-15T16:51:53.659Z,89774.44
2022-12-15T16:54:25.237Z,89770.59
2022-12-15T16:57:01.827Z,89778.94
2022-12-15T16:59:33.422Z,89783.88
2022-12-15T17:02:01.910Z,89787.63
2022-12-15T17:04:29.282Z,89791.41
2022-12-15T17:06:56.563Z,89791.94
2022-12-15T17:09:25.766Z,89785.81
2022-12-15T17:11:53.271Z,89793.63
2022-12-15T17:14:20.640Z,89797.13
2022-12-15T17:16:48.129Z,89800.59
2022-12-15T17:19:20.862Z,89794.16
2022-12-15T17:21:55.066Z,89797.47
2022-12-15T17:24:22.627Z,89801.13
2022-12-15T17:26:50.312Z,89801.88
2022-12-15T17:29:20.275Z,89808.28
2022-12-15T17:31:47.770Z,89797.38
2022-12-15T17:34:30.502Z,89807.72
2022-12-15T17:36:59.547Z,89801.13
2022-12-15T17:39:27.740Z,89806.50
2022-12-15T17:42:00.370Z,89812.31
2022-12-15T17:44:33.701Z,89812.50
2022-12-15T17:47:03.502Z,89820.00
2022-12-15T17:49:35.438Z,89822.75
2022-12-15T17:52:20.370Z,89814.47
2022-12-15T17:54:47.760Z,89820.91
2022-12-15T17:57:14.863Z,89820.75
2022-12-15T17:59:42.284Z,89820.84
2022-12-15T18:02:12.621Z,89815.28
2022-12-15T18:04:40.947Z,89813.78
2022-12-15T18:07:24.837Z,89814.78
2022-12-15T18:09:52.940Z,89809.53
2022-12-15T18:12:25.628Z,89800.19
2022-12-15T18:14:53.684Z,89818.06
2022-12-15T18:17:20.964Z,89824.16
2022-12-15T18:19:47.932Z,89820.44
2022-12-15T18:22:22.450Z,89827.34
2022-12-15T18:24:54.430Z,89828.28
2022-12-15T18:27:21.368Z,89830.94
2022-12-15T18:29:51.215Z,89824.44
2022-12-15T18:32:19.548Z,89842.97
2022-12-15T18:34:46.653Z,89835.66
2022-12-15T18:37:18.696Z,89837.53
2022-12-15T18:39:46.166Z,89831.66
2022-12-15T18:42:20.440Z,89836.66
2022-12-15T18:44:51.543Z,89830.22
2022-12-15T18:47:21.656Z,89836.00
2022-12-15T18:49:48.879Z,89836.44
2022-12-15T18:52:26.493Z,89839.72
2022-12-15T18:54:56.222Z,89832.22
2022-12-15T18:57:28.024Z,89837.38
2022-12-15T19:00:10.349Z,89844.31
2022-12-15T19:02:37.587Z,89848.75
2022-12-15T19:05:05.223Z,89854.31
2022-12-15T19:07:34.513Z,89857.03
2022-12-15T19:10:01.715Z,89860.69
2022-12-15T19:12:28.752Z,89859.72
2022-12-15T19:14:56.131Z,89855.31
2022-12-15T19:17:25.045Z,89853.31
2022-12-15T19:19:52.047Z,89852.72
2022-12-15T19:22:19.007Z,89866.28
2022-12-15T19:24:46.026Z,89864.38
2022-12-15T19:27:18.476Z,89872.75
2022-12-15T19:29:45.356Z,89870.66
2022-12-15T19:32:12.641Z,89879.19
2022-12-15T19:34:39.866Z,89879.56
2022-12-15T19:37:13.610Z,89875.25
2022-12-15T19:39:40.721Z,89873.66
2022-12-15T19:42:20.302Z,89874.09
2022-12-15T19:44:47.349Z,89878.06
2022-12-15T19:47:15.028Z,89877.50
2022-12-15T19:49:43.581Z,89882.53
2022-12-15T19:52:17.642Z,89882.81
2022-12-15T19:54:46.925Z,89884.22
2022-12-15T19:57:15.791Z,89887.81
2022-12-15T19:59:42.727Z,89890.88
2022-12-15T20:02:20.572Z,89893.88
2022-12-15T20:04:49.089Z,89890.38
2022-12-15T20:07:28.599Z,89893.66
2022-12-15T20:09:56.505Z,89896.94
2022-12-15T20:12:23.496Z,89901.22
2022-12-15T20:14:50.609Z,89907.00
2022-12-15T20:17:17.662Z,89911.72
2022-12-15T20:19:44.981Z,89912.88
2022-12-15T20:22:17.886Z,89911.88
2022-12-15T20:24:46.059Z,89920.56
2022-12-15T20:27:18.533Z,89914.69
2022-12-15T20:29:46.093Z,89915.91
2022-12-15T20:32:19.807Z,89916.78
2022-12-15T20:34:53.480Z,89926.66
2022-12-15T20:37:30.275Z,89918.69
2022-12-15T20:39:57.869Z,89930.06
2022-12-15T20:42:25.519Z,89933.75
2022-12-15T20:44:54.382Z,89927.25
2022-12-15T20:47:24.149Z,89929.00
2022-12-15T20:49:53.146Z,89931.94
2022-12-15T20:52:23.942Z,89928.00
2022-12-15T20:54:53.305Z,89932.13
2022-12-15T20:57:21.070Z,89925.06
2022-12-15T20:59:48.142Z,89926.00
2022-12-15T21:02:20.857Z,89924.53
2022-12-15T21:04:48.535Z,89932.13
2022-12-15T21:07:15.848Z,89923.56
2022-12-15T21:09:42.898Z,89921.16
2022-12-15T21:12:18.476Z,89922.03
2022-12-15T21:14:45.706Z,89919.91
2022-12-15T21:17:30.875Z,89928.84
2022-12-15T21:19:57.739Z,89934.03
2022-12-15T21:22:26.813Z,89927.47
2022-12-15T21:24:56.000Z,89931.94
2022-12-15T21:27:23.078Z,89930.75
2022-12-15T21:29:52.659Z,89928.88
2022-12-15T21:32:20.855Z,89931.53
2022-12-15T21:34:47.699Z,89935.06
2022-12-15T21:37:28.810Z,89932.13
2022-12-15T21:39:56.260Z,89945.63
2022-12-15T21:42:23.641Z,89948.50
2022-12-15T21:44:50.475Z,89950.53
2022-12-15T21:47:24.517Z,89954.84
2022-12-15T21:49:51.787Z,89948.91
2022-12-15T21:52:19.809Z,89956.25
2022-12-15T21:54:47.033Z,89947.69
2022-12-15T21:57:14.945Z,89956.47
2022-12-15T21:59:41.843Z,89959.78
2022-12-15T22:02:41.328Z,89960.72
2022-12-15T22:05:28.109Z,89959.66
2022-12-15T22:07:55.586Z,89949.56
2022-12-15T22:10:24.794Z,89951.38
2022-12-15T22:12:59.356Z,89962.16
2022-12-15T22:15:29.064Z,89960.28
2022-12-15T22:17:56.038Z,89970.47
2022-12-15T22:20:24.925Z,89972.66
2022-12-15T22:22:51.899Z,89976.38
2022-12-15T22:25:22.213Z,89972.63
2022-12-15T22:27:49.845Z,89965.00
2022-12-15T22:30:20.748Z,89971.78
2022-12-15T22:32:47.795Z,89965.31
2022-12-15T22:35:23.412Z,89973.75
2022-12-15T22:37:50.330Z,89968.81
2022-12-15T22:40:17.112Z,89977.63
2022-12-15T22:42:50.367Z,89984.13
2022-12-15T22:45:21.236Z,89988.78
2022-12-15T22:47:50.221Z,89985.16
2022-12-15T22:50:25.177Z,89985.25
2022-12-15T22:52:52.156Z,89982.94
2022-12-15T22:55:20.879Z,89987.38
2022-12-15T22:57:56.119Z,89979.72
2022-12-15T23:00:23.217Z,89981.47
2022-12-15T23:02:50.306Z,89979.84
2022-12-15T23:05:19.628Z,89980.00
2022-12-15T23:07:47.169Z,89979.94
2022-12-15T23:10:16.668Z,89983.91
2022-12-15T23:12:43.699Z,89991.19
2022-12-15T23:15:10.993Z,89991.19
2022-12-15T23:17:37.946Z,89994.22
2022-12-15T23:20:05.405Z,89995.22
2022-12-15T23:22:32.370Z,89995.31
2022-12-15T23:24:59.080Z,89988.78
2022-12-15T23:27:26.025Z,90001.78
2022-12-15T23:29:52.942Z,90005.75
2022-12-15T23:32:25.366Z,90012.09
2022-12-15T23:34:52.385Z,90007.81
2022-12-15T23:37:27.711Z,90021.38
2022-12-15T23:39:54.608Z,90021.94
2022-12-15T23:42:21.543Z,90021.22
2022-12-15T23:44:48.443Z,90025.78
2022-12-15T23:47:15.244Z,90031.09
2022-12-15T23:49:42.096Z,90031.09
2022-12-15T23:52:08.977Z,90036.88
2022-12-15T23:54:35.910Z,90032.28
2022-12-15T23:57:02.712Z,90033.31
2022-12-15T23:59:29.580Z,90030.53
